This is the latest recevied weather packets stored in our database for station/object KB3KAV. If no packets are shown the sender has not sent any weather packets the latest 10 day(s).
| Time | Temp. | Humidity | Pressure | Rain* | Wind** | Luminosity | Snow |
|---|---|---|---|---|---|---|---|
| 1777858431 | 6.11° C | 68% | 1041.4 hPa | 0 mm | - | 0 W/m² | - |
| 1777857831 | 6.67° C | 67% | 1041.3 hPa | 0 mm | - | 0 W/m² | - |
| 1777857230 | 7.22° C | 64% | 1040.9 hPa | 0 mm | - | 0 W/m² | - |
| 1777856628 | 7.22° C | 62% | 1040.9 hPa | 0 mm | - | 0 W/m² | - |
| 1777856027 | 7.78° C | 62% | 1040.8 hPa | 0 mm | - | 0 W/m² | - |
| 1777855423 | 8.33° C | 59% | 1041 hPa | 0 mm | - | 0 W/m² | - |
| 1777854822 | 8.89° C | 58% | 1041 hPa | 0 mm | - | 0 W/m² | - |
| 1777854220 | 9.44° C | 56% | 1040.7 hPa | 0 mm | - | 0 W/m² | - |
| 1777853620 | 10.56° C | 52% | 1040.6 hPa | 0 mm | - | 0 W/m² | - |
| 1777853020 | 11.11° C | 47% | 1040.4 hPa | 0 mm | - | 2 W/m² | - |
| 1777852415 | 12.22° C | 43% | 1040.2 hPa | 0 mm | - | 6 W/m² | - |
| 1777851810 | 12.78° C | 39% | 1040.2 hPa | 0 mm | - | 13 W/m² | - |
| 1777851209 | 13.33° C | 37% | 1040.3 hPa | 0 mm | - | 20 W/m² | - |
| 1777850609 | 13.33° C | 36% | 1040.1 hPa | 0 mm | - | 31 W/m² | - |
| 1777850010 | 13.89° C | 35% | 1040.1 hPa | 0 mm | - | 31 W/m² | - |
| 1777849408 | 13.89° C | 37% | 1040.3 hPa | 0 mm | - | 41 W/m² | - |
| 1777848808 | 13.89° C | 35% | 1040 hPa | 0 mm | - | 62 W/m² | - |
| 1777848207 | 13.89° C | 36% | 1040 hPa | 0 mm | - | 55 W/m² | - |
| 1777847603 | 15° C | 35% | 1039.9 hPa | 0 mm | - | 63 W/m² | - |
| 1777847003 | 15° C | 33% | 1040 hPa | 0 mm | - | 239 W/m² | - |
| 1777846399 | 15° C | 32% | 1039.9 hPa | 0 mm | - | 267 W/m² | - |
| 1777845797 | 15° C | 34% | 1040 hPa | 0 mm | - | 288 W/m² | - |
| 1777845197 | 14.44° C | 33% | 1040 hPa | 0 mm | - | 317 W/m² | - |
| 1777844592 | 14.44° C | 34% | 1039.8 hPa | 0 mm | - | 106 W/m² | - |
| 1777843987 | 15.56° C | 32% | 1039.9 hPa | 0 mm | - | 97 W/m² | - |
* Rain latest hour (hover to see other rain measurements)
** Current wind speed in m/s (hover to see current wind gust speed)